sensor_id;sensor_type;location;lat;lon;timestamp;P1;durP1;ratioP1;P2;durP2;ratioP2
1925;SDS011;964;42.606;23.588;2023-07-22T00:00:28;7.00;;;5.00;;
1925;SDS011;964;42.606;23.588;2023-07-22T00:02:55;6.07;;;5.47;;
1925;SDS011;964;42.606;23.588;2023-07-22T00:05:22;6.90;;;5.50;;
1925;SDS011;964;42.606;23.588;2023-07-22T00:07:49;6.97;;;5.43;;
1925;SDS011;964;42.606;23.588;2023-07-22T00:10:16;6.43;;;5.77;;
1925;SDS011;964;42.606;23.588;2023-07-22T00:12:42;7.00;;;5.30;;
1925;SDS011;964;42.606;23.588;2023-07-22T00:15:09;5.90;;;4.77;;
1925;SDS011;964;42.606;23.588;2023-07-22T00:17:38;6.77;;;5.77;;
1925;SDS011;964;42.606;23.588;2023-07-22T00:20:07;7.90;;;6.27;;
1925;SDS011;964;42.606;23.588;2023-07-22T00:22:36;8.57;;;5.20;;
1925;SDS011;964;42.606;23.588;2023-07-22T00:25:03;9.00;;;6.20;;
1925;SDS011;964;42.606;23.588;2023-07-22T00:27:30;10.13;;;5.73;;
1925;SDS011;964;42.606;23.588;2023-07-22T00:29:57;8.73;;;5.20;;
1925;SDS011;964;42.606;23.588;2023-07-22T00:32:23;6.03;;;5.33;;
1925;SDS011;964;42.606;23.588;2023-07-22T00:34:51;7.97;;;5.63;;
1925;SDS011;964;42.606;23.588;2023-07-22T00:37:18;5.80;;;5.20;;
1925;SDS011;964;42.606;23.588;2023-07-22T00:39:45;10.30;;;5.60;;
1925;SDS011;964;42.606;23.588;2023-07-22T00:42:11;8.50;;;5.90;;
1925;SDS011;964;42.606;23.588;2023-07-22T00:44:38;7.23;;;6.53;;
1925;SDS011;964;42.606;23.588;2023-07-22T00:47:04;6.10;;;5.00;;
1925;SDS011;964;42.606;23.588;2023-07-22T00:49:32;8.80;;;6.10;;
1925;SDS011;964;42.606;23.588;2023-07-22T01:19:20;6.20;;;5.60;;
1925;SDS011;964;42.606;23.588;2023-07-22T01:21:47;11.93;;;6.37;;
1925;SDS011;964;42.606;23.588;2023-07-22T01:24:17;7.83;;;6.70;;
1925;SDS011;964;42.606;23.588;2023-07-22T01:26:44;10.13;;;5.50;;
1925;SDS011;964;42.606;23.588;2023-07-22T01:29:10;8.30;;;6.20;;
1925;SDS011;964;42.606;23.588;2023-07-22T01:31:37;7.77;;;6.00;;
1925;SDS011;964;42.606;23.588;2023-07-22T01:34:04;8.97;;;5.60;;
1925;SDS011;964;42.606;23.588;2023-07-22T01:36:31;9.40;;;5.80;;
1925;SDS011;964;42.606;23.588;2023-07-22T01:38:57;6.23;;;5.73;;
1925;SDS011;964;42.606;23.588;2023-07-22T01:41:27;7.33;;;5.90;;
1925;SDS011;964;42.606;23.588;2023-07-22T01:43:53;8.60;;;6.40;;
1925;SDS011;964;42.606;23.588;2023-07-22T01:46:20;6.57;;;5.97;;
1925;SDS011;964;42.606;23.588;2023-07-22T01:48:47;6.63;;;5.60;;
1925;SDS011;964;42.606;23.588;2023-07-22T01:51:13;6.23;;;5.20;;
1925;SDS011;964;42.606;23.588;2023-07-22T01:53:40;8.30;;;6.37;;
1925;SDS011;964;42.606;23.588;2023-07-22T01:56:06;7.83;;;5.97;;
1925;SDS011;964;42.606;23.588;2023-07-22T01:58:35;9.57;;;5.67;;
1925;SDS011;964;42.606;23.588;2023-07-22T02:01:01;7.10;;;5.37;;
1925;SDS011;964;42.606;23.588;2023-07-22T02:03:28;9.47;;;6.37;;
1925;SDS011;964;42.606;23.588;2023-07-22T02:06:00;7.03;;;6.30;;
1925;SDS011;964;42.606;23.588;2023-07-22T02:08:28;7.77;;;6.97;;
1925;SDS011;964;42.606;23.588;2023-07-22T02:10:54;6.90;;;6.20;;
1925;SDS011;964;42.606;23.588;2023-07-22T02:13:21;6.50;;;5.80;;
1925;SDS011;964;42.606;23.588;2023-07-22T02:15:49;9.80;;;6.17;;
1925;SDS011;964;42.606;23.588;2023-07-22T02:18:16;9.07;;;6.27;;
1925;SDS011;964;42.606;23.588;2023-07-22T02:20:43;7.13;;;5.80;;
1925;SDS011;964;42.606;23.588;2023-07-22T02:23:09;8.00;;;6.03;;
1925;SDS011;964;42.606;23.588;2023-07-22T02:25:36;7.23;;;6.53;;
1925;SDS011;964;42.606;23.588;2023-07-22T02:28:03;7.93;;;5.73;;
1925;SDS011;964;42.606;23.588;2023-07-22T02:30:29;8.00;;;6.90;;
1925;SDS011;964;42.606;23.588;2023-07-22T02:32:57;6.97;;;6.10;;
1925;SDS011;964;42.606;23.588;2023-07-22T02:35:24;8.13;;;6.17;;
1925;SDS011;964;42.606;23.588;2023-07-22T02:37:51;8.43;;;5.47;;
1925;SDS011;964;42.606;23.588;2023-07-22T02:40:17;8.10;;;7.30;;
1925;SDS011;964;42.606;23.588;2023-07-22T02:42:44;7.20;;;6.40;;
1925;SDS011;964;42.606;23.588;2023-07-22T02:45:10;6.20;;;5.60;;
1925;SDS011;964;42.606;23.588;2023-07-22T02:47:37;7.00;;;6.30;;
1925;SDS011;964;42.606;23.588;2023-07-22T02:50:06;6.43;;;5.60;;
1925;SDS011;964;42.606;23.588;2023-07-22T02:52:33;6.80;;;6.10;;
1925;SDS011;964;42.606;23.588;2023-07-22T02:55:04;7.50;;;6.17;;
1925;SDS011;964;42.606;23.588;2023-07-22T02:57:33;9.03;;;6.77;;
1925;SDS011;964;42.606;23.588;2023-07-22T03:00:00;6.60;;;4.87;;
1925;SDS011;964;42.606;23.588;2023-07-22T03:02:31;12.03;;;6.80;;
1925;SDS011;964;42.606;23.588;2023-07-22T03:04:59;9.00;;;6.00;;
1925;SDS011;964;42.606;23.588;2023-07-22T03:07:27;7.10;;;6.40;;
1925;SDS011;964;42.606;23.588;2023-07-22T03:09:53;7.97;;;6.53;;
1925;SDS011;964;42.606;23.588;2023-07-22T03:12:20;9.93;;;6.37;;
1925;SDS011;964;42.606;23.588;2023-07-22T03:14:47;8.07;;;6.60;;
1925;SDS011;964;42.606;23.588;2023-07-22T03:17:14;6.73;;;5.97;;
1925;SDS011;964;42.606;23.588;2023-07-22T03:19:41;8.30;;;7.40;;
1925;SDS011;964;42.606;23.588;2023-07-22T03:22:08;7.73;;;6.20;;
1925;SDS011;964;42.606;23.588;2023-07-22T03:24:36;9.00;;;6.70;;
1925;SDS011;964;42.606;23.588;2023-07-22T03:27:03;6.53;;;5.80;;
1925;SDS011;964;42.606;23.588;2023-07-22T03:29:29;7.43;;;4.00;;
1925;SDS011;964;42.606;23.588;2023-07-22T03:31:56;7.53;;;6.73;;
1925;SDS011;964;42.606;23.588;2023-07-22T03:34:23;9.50;;;6.50;;
1925;SDS011;964;42.606;23.588;2023-07-22T03:36:50;8.40;;;7.60;;
1925;SDS011;964;42.606;23.588;2023-07-22T03:39:16;7.40;;;6.00;;
1925;SDS011;964;42.606;23.588;2023-07-22T03:41:44;8.33;;;6.53;;
1925;SDS011;964;42.606;23.588;2023-07-22T03:44:11;7.83;;;6.90;;
1925;SDS011;964;42.606;23.588;2023-07-22T03:46:38;11.17;;;6.67;;
1925;SDS011;964;42.606;23.588;2023-07-22T03:49:05;10.27;;;6.57;;
1925;SDS011;964;42.606;23.588;2023-07-22T03:51:33;10.80;;;6.30;;
1925;SDS011;964;42.606;23.588;2023-07-22T03:53:59;11.40;;;6.50;;
1925;SDS011;964;42.606;23.588;2023-07-22T03:56:26;9.87;;;6.10;;
1925;SDS011;964;42.606;23.588;2023-07-22T03:58:54;10.90;;;6.20;;
1925;SDS011;964;42.606;23.588;2023-07-22T04:01:21;9.33;;;6.23;;
1925;SDS011;964;42.606;23.588;2023-07-22T04:03:47;9.93;;;6.77;;
1925;SDS011;964;42.606;23.588;2023-07-22T04:06:14;10.00;;;6.43;;
1925;SDS011;964;42.606;23.588;2023-07-22T04:08:41;8.87;;;6.30;;
1925;SDS011;964;42.606;23.588;2023-07-22T04:11:07;9.80;;;6.83;;
1925;SDS011;964;42.606;23.588;2023-07-22T04:13:34;9.40;;;7.47;;
1925;SDS011;964;42.606;23.588;2023-07-22T04:16:02;10.97;;;7.30;;
1925;SDS011;964;42.606;23.588;2023-07-22T04:18:29;8.30;;;6.47;;
1925;SDS011;964;42.606;23.588;2023-07-22T04:20:59;7.60;;;6.80;;
1925;SDS011;964;42.606;23.588;2023-07-22T04:23:26;6.80;;;6.20;;
1925;SDS011;964;42.606;23.588;2023-07-22T04:25:53;7.30;;;6.23;;
1925;SDS011;964;42.606;23.588;2023-07-22T04:28:20;8.67;;;6.67;;
1925;SDS011;964;42.606;23.588;2023-07-22T04:30:54;8.60;;;6.30;;
1925;SDS011;964;42.606;23.588;2023-07-22T04:33:24;9.53;;;6.17;;
1925;SDS011;964;42.606;23.588;2023-07-22T04:35:53;7.50;;;6.50;;
1925;SDS011;964;42.606;23.588;2023-07-22T04:38:20;7.80;;;6.90;;
1925;SDS011;964;42.606;23.588;2023-07-22T04:40:46;7.13;;;6.53;;
1925;SDS011;964;42.606;23.588;2023-07-22T04:43:13;9.60;;;6.30;;
1925;SDS011;964;42.606;23.588;2023-07-22T04:45:40;9.00;;;6.37;;
1925;SDS011;964;42.606;23.588;2023-07-22T04:48:06;12.00;;;7.80;;
1925;SDS011;964;42.606;23.588;2023-07-22T04:50:34;8.30;;;6.40;;
1925;SDS011;964;42.606;23.588;2023-07-22T04:53:01;11.37;;;7.70;;
1925;SDS011;964;42.606;23.588;2023-07-22T04:55:28;9.03;;;7.50;;
1925;SDS011;964;42.606;23.588;2023-07-22T04:57:55;9.63;;;7.10;;
1925;SDS011;964;42.606;23.588;2023-07-22T05:00:22;13.10;;;6.93;;
1925;SDS011;964;42.606;23.588;2023-07-22T05:02:48;11.10;;;6.83;;
1925;SDS011;964;42.606;23.588;2023-07-22T05:05:17;8.40;;;6.37;;
1925;SDS011;964;42.606;23.588;2023-07-22T05:07:45;11.13;;;7.80;;
1925;SDS011;964;42.606;23.588;2023-07-22T05:10:13;7.60;;;6.80;;
1925;SDS011;964;42.606;23.588;2023-07-22T05:12:40;6.97;;;6.37;;
1925;SDS011;964;42.606;23.588;2023-07-22T05:15:08;10.87;;;7.60;;
1925;SDS011;964;42.606;23.588;2023-07-22T05:17:35;7.50;;;6.60;;
1925;SDS011;964;42.606;23.588;2023-07-22T05:20:02;11.80;;;6.90;;
1925;SDS011;964;42.606;23.588;2023-07-22T05:22:31;8.37;;;6.83;;
1925;SDS011;964;42.606;23.588;2023-07-22T05:24:59;10.00;;;6.53;;
1925;SDS011;964;42.606;23.588;2023-07-22T05:27:26;7.47;;;6.67;;
1925;SDS011;964;42.606;23.588;2023-07-22T05:29:52;7.60;;;6.80;;
1925;SDS011;964;42.606;23.588;2023-07-22T05:32:19;8.27;;;7.10;;
1925;SDS011;964;42.606;23.588;2023-07-22T05:34:46;9.43;;;7.23;;
1925;SDS011;964;42.606;23.588;2023-07-22T05:37:13;7.40;;;6.70;;
1925;SDS011;964;42.606;23.588;2023-07-22T05:39:39;7.83;;;7.03;;
1925;SDS011;964;42.606;23.588;2023-07-22T05:42:07;7.63;;;6.83;;
1925;SDS011;964;42.606;23.588;2023-07-22T05:44:34;7.60;;;6.07;;
1925;SDS011;964;42.606;23.588;2023-07-22T05:47:00;9.00;;;7.37;;
1925;SDS011;964;42.606;23.588;2023-07-22T05:49:27;9.07;;;7.57;;
1925;SDS011;964;42.606;23.588;2023-07-22T05:51:54;7.43;;;6.70;;
1925;SDS011;964;42.606;23.588;2023-07-22T05:54:20;10.23;;;6.43;;
1925;SDS011;964;42.606;23.588;2023-07-22T05:56:47;8.00;;;7.20;;
1925;SDS011;964;42.606;23.588;2023-07-22T05:59:15;10.97;;;7.60;;
1925;SDS011;964;42.606;23.588;2023-07-22T06:01:42;8.40;;;6.83;;
1925;SDS011;964;42.606;23.588;2023-07-22T06:04:08;11.40;;;8.00;;
1925;SDS011;964;42.606;23.588;2023-07-22T06:06:35;8.10;;;7.30;;
1925;SDS011;964;42.606;23.588;2023-07-22T06:09:02;9.57;;;6.67;;
1925;SDS011;964;42.606;23.588;2023-07-22T06:22:55;8.70;;;7.43;;
1925;SDS011;964;42.606;23.588;2023-07-22T06:25:22;8.33;;;7.20;;
1925;SDS011;964;42.606;23.588;2023-07-22T06:27:48;8.17;;;7.47;;
1925;SDS011;964;42.606;23.588;2023-07-22T06:30:15;8.63;;;6.77;;
1925;SDS011;964;42.606;23.588;2023-07-22T06:32:42;7.90;;;7.10;;
1925;SDS011;964;42.606;23.588;2023-07-22T06:35:09;8.53;;;7.23;;
1925;SDS011;964;42.606;23.588;2023-07-22T06:37:36;8.00;;;7.30;;
1925;SDS011;964;42.606;23.588;2023-07-22T06:40:04;7.27;;;6.57;;
1925;SDS011;964;42.606;23.588;2023-07-22T06:42:32;7.70;;;7.00;;
1925;SDS011;964;42.606;23.588;2023-07-22T06:44:58;8.83;;;7.23;;
1925;SDS011;964;42.606;23.588;2023-07-22T06:47:25;10.13;;;7.10;;
1925;SDS011;964;42.606;23.588;2023-07-22T06:49:52;10.07;;;6.90;;
1925;SDS011;964;42.606;23.588;2023-07-22T06:52:18;8.77;;;7.00;;
1925;SDS011;964;42.606;23.588;2023-07-22T06:54:45;9.37;;;7.70;;
1925;SDS011;964;42.606;23.588;2023-07-22T06:57:13;7.97;;;7.17;;
1925;SDS011;964;42.606;23.588;2023-07-22T06:59:40;9.87;;;7.33;;
1925;SDS011;964;42.606;23.588;2023-07-22T07:02:06;8.27;;;7.37;;
1925;SDS011;964;42.606;23.588;2023-07-22T07:04:33;10.67;;;7.93;;
1925;SDS011;964;42.606;23.588;2023-07-22T07:07:00;9.07;;;8.13;;
1925;SDS011;964;42.606;23.588;2023-07-22T07:09:27;8.43;;;7.63;;
1925;SDS011;964;42.606;23.588;2023-07-22T07:11:54;9.97;;;7.87;;
1925;SDS011;964;42.606;23.588;2023-07-22T07:14:23;9.63;;;7.73;;
1925;SDS011;964;42.606;23.588;2023-07-22T07:16:50;8.73;;;7.90;;
1925;SDS011;964;42.606;23.588;2023-07-22T07:19:17;9.07;;;7.70;;
1925;SDS011;964;42.606;23.588;2023-07-22T07:21:43;8.40;;;6.93;;
1925;SDS011;964;42.606;23.588;2023-07-22T07:24:10;10.83;;;7.60;;
1925;SDS011;964;42.606;23.588;2023-07-22T07:26:37;9.17;;;7.20;;
1925;SDS011;964;42.606;23.588;2023-07-22T07:29:04;9.27;;;7.90;;
1925;SDS011;964;42.606;23.588;2023-07-22T07:31:32;7.83;;;7.03;;
1925;SDS011;964;42.606;23.588;2023-07-22T07:33:58;8.63;;;7.43;;
1925;SDS011;964;42.606;23.588;2023-07-22T07:36:25;7.80;;;6.90;;
1925;SDS011;964;42.606;23.588;2023-07-22T07:38:51;13.23;;;7.40;;
1925;SDS011;964;42.606;23.588;2023-07-22T07:41:18;10.07;;;7.17;;
1925;SDS011;964;42.606;23.588;2023-07-22T07:43:44;16.33;;;8.07;;
1925;SDS011;964;42.606;23.588;2023-07-22T07:46:11;16.50;;;7.00;;
1925;SDS011;964;42.606;23.588;2023-07-22T07:48:40;9.03;;;7.93;;
1925;SDS011;964;42.606;23.588;2023-07-22T07:51:06;11.83;;;7.10;;
1925;SDS011;964;42.606;23.588;2023-07-22T07:53:33;11.97;;;7.73;;
1925;SDS011;964;42.606;23.588;2023-07-22T07:56:00;9.40;;;7.83;;
1925;SDS011;964;42.606;23.588;2023-07-22T07:58:26;9.10;;;6.93;;
1925;SDS011;964;42.606;23.588;2023-07-22T08:00:53;11.10;;;6.93;;
1925;SDS011;964;42.606;23.588;2023-07-22T08:03:19;10.07;;;8.50;;
1925;SDS011;964;42.606;23.588;2023-07-22T08:05:47;12.17;;;8.23;;
1925;SDS011;964;42.606;23.588;2023-07-22T08:08:14;7.70;;;7.00;;
1925;SDS011;964;42.606;23.588;2023-07-22T08:10:41;11.95;;;7.32;;
1925;SDS011;964;42.606;23.588;2023-07-22T08:13:08;11.05;;;7.60;;
1925;SDS011;964;42.606;23.588;2023-07-22T08:15:34;11.10;;;8.95;;
1925;SDS011;964;42.606;23.588;2023-07-22T08:18:01;9.65;;;7.88;;
1925;SDS011;964;42.606;23.588;2023-07-22T08:20:29;9.35;;;7.15;;
1925;SDS011;964;42.606;23.588;2023-07-22T08:22:57;8.20;;;6.95;;
1925;SDS011;964;42.606;23.588;2023-07-22T08:25:24;11.48;;;7.25;;
1925;SDS011;964;42.606;23.588;2023-07-22T08:27:50;11.50;;;8.27;;
1925;SDS011;964;42.606;23.588;2023-07-22T08:30:17;9.82;;;8.40;;
1925;SDS011;964;42.606;23.588;2023-07-22T08:32:43;9.23;;;8.20;;
1925;SDS011;964;42.606;23.588;2023-07-22T08:35:10;16.70;;;7.80;;
1925;SDS011;964;42.606;23.588;2023-07-22T08:37:37;10.60;;;7.68;;
1925;SDS011;964;42.606;23.588;2023-07-22T08:40:05;8.98;;;7.03;;
1925;SDS011;964;42.606;23.588;2023-07-22T08:42:33;9.00;;;7.72;;
1925;SDS011;964;42.606;23.588;2023-07-22T08:45:02;12.32;;;7.28;;
1925;SDS011;964;42.606;23.588;2023-07-22T08:47:32;7.82;;;7.05;;
1925;SDS011;964;42.606;23.588;2023-07-22T08:50:01;8.52;;;7.65;;
1925;SDS011;964;42.606;23.588;2023-07-22T08:52:28;9.27;;;7.65;;
1925;SDS011;964;42.606;23.588;2023-07-22T08:54:55;16.25;;;8.27;;
1925;SDS011;964;42.606;23.588;2023-07-22T08:57:24;11.15;;;7.22;;
1925;SDS011;964;42.606;23.588;2023-07-22T08:59:53;8.38;;;7.43;;
1925;SDS011;964;42.606;23.588;2023-07-22T09:02:20;12.35;;;7.90;;
1925;SDS011;964;42.606;23.588;2023-07-22T09:04:47;7.60;;;6.80;;
1925;SDS011;964;42.606;23.588;2023-07-22T09:07:13;10.43;;;7.88;;
1925;SDS011;964;42.606;23.588;2023-07-22T09:09:43;8.80;;;7.50;;
1925;SDS011;964;42.606;23.588;2023-07-22T09:12:11;11.63;;;8.15;;
1925;SDS011;964;42.606;23.588;2023-07-22T09:14:40;8.43;;;7.55;;
1925;SDS011;964;42.606;23.588;2023-07-22T09:17:07;8.48;;;7.22;;
1925;SDS011;964;42.606;23.588;2023-07-22T09:19:34;9.43;;;7.28;;
1925;SDS011;964;42.606;23.588;2023-07-22T09:22:01;7.50;;;6.80;;
1925;SDS011;964;42.606;23.588;2023-07-22T09:24:28;8.63;;;7.72;;
1925;SDS011;964;42.606;23.588;2023-07-22T09:26:54;11.50;;;7.55;;
1925;SDS011;964;42.606;23.588;2023-07-22T09:29:31;11.30;;;7.30;;
1925;SDS011;964;42.606;23.588;2023-07-22T09:32:00;11.05;;;7.07;;
1925;SDS011;964;42.606;23.588;2023-07-22T09:34:28;8.55;;;7.40;;
1925;SDS011;964;42.606;23.588;2023-07-22T09:36:55;8.13;;;6.70;;
1925;SDS011;964;42.606;23.588;2023-07-22T09:39:25;7.88;;;6.68;;
1925;SDS011;964;42.606;23.588;2023-07-22T09:41:52;12.25;;;7.65;;
1925;SDS011;964;42.606;23.588;2023-07-22T09:44:19;8.63;;;7.22;;
1925;SDS011;964;42.606;23.588;2023-07-22T09:46:46;7.72;;;6.88;;
1925;SDS011;964;42.606;23.588;2023-07-22T09:49:16;7.55;;;6.57;;
1925;SDS011;964;42.606;23.588;2023-07-22T09:51:43;8.20;;;7.03;;
1925;SDS011;964;42.606;23.588;2023-07-22T09:54:10;15.68;;;7.28;;
1925;SDS011;964;42.606;23.588;2023-07-22T09:56:43;11.73;;;7.53;;
1925;SDS011;964;42.606;23.588;2023-07-22T09:59:11;9.43;;;7.10;;
1925;SDS011;964;42.606;23.588;2023-07-22T10:01:39;7.80;;;7.00;;
1925;SDS011;964;42.606;23.588;2023-07-22T10:04:07;8.75;;;6.57;;
1925;SDS011;964;42.606;23.588;2023-07-22T10:06:37;12.45;;;8.38;;
1925;SDS011;964;42.606;23.588;2023-07-22T10:09:05;12.10;;;6.78;;
1925;SDS011;964;42.606;23.588;2023-07-22T10:11:36;8.35;;;6.68;;
1925;SDS011;964;42.606;23.588;2023-07-22T10:14:05;10.77;;;6.93;;
1925;SDS011;964;42.606;23.588;2023-07-22T10:16:32;10.20;;;5.97;;
1925;SDS011;964;42.606;23.588;2023-07-22T10:18:59;11.77;;;6.85;;
1925;SDS011;964;42.606;23.588;2023-07-22T10:21:26;13.45;;;7.13;;
1925;SDS011;964;42.606;23.588;2023-07-22T10:23:56;7.13;;;5.88;;
1925;SDS011;964;42.606;23.588;2023-07-22T10:26:26;12.15;;;6.47;;
1925;SDS011;964;42.606;23.588;2023-07-22T10:28:54;15.20;;;7.57;;
1925;SDS011;964;42.606;23.588;2023-07-22T10:31:22;9.77;;;7.38;;
1925;SDS011;964;42.606;23.588;2023-07-22T10:33:49;9.60;;;6.95;;
1925;SDS011;964;42.606;23.588;2023-07-22T10:36:16;12.18;;;7.80;;
1925;SDS011;964;42.606;23.588;2023-07-22T10:38:43;14.20;;;6.88;;
1925;SDS011;964;42.606;23.588;2023-07-22T10:41:15;10.73;;;7.03;;
1925;SDS011;964;42.606;23.588;2023-07-22T10:43:52;13.38;;;6.35;;
1925;SDS011;964;42.606;23.588;2023-07-22T10:46:30;10.07;;;6.78;;
1925;SDS011;964;42.606;23.588;2023-07-22T10:49:02;11.15;;;6.90;;
1925;SDS011;964;42.606;23.588;2023-07-22T10:51:35;9.82;;;7.20;;
1925;SDS011;964;42.606;23.588;2023-07-22T10:54:02;9.45;;;6.45;;
1925;SDS011;964;42.606;23.588;2023-07-22T10:56:37;7.13;;;6.43;;
1925;SDS011;964;42.606;23.588;2023-07-22T10:59:04;9.85;;;7.07;;
1925;SDS011;964;42.606;23.588;2023-07-22T11:01:34;9.75;;;7.80;;
1925;SDS011;964;42.606;23.588;2023-07-22T11:04:12;12.00;;;7.57;;
1925;SDS011;964;42.606;23.588;2023-07-22T11:06:54;11.50;;;7.18;;
1925;SDS011;964;42.606;23.588;2023-07-22T11:12:16;10.73;;;7.40;;
1925;SDS011;964;42.606;23.588;2023-07-22T11:14:46;13.38;;;8.00;;
1925;SDS011;964;42.606;23.588;2023-07-22T11:17:14;13.73;;;8.18;;
1925;SDS011;964;42.606;23.588;2023-07-22T11:19:42;15.00;;;7.32;;
1925;SDS011;964;42.606;23.588;2023-07-22T11:22:10;10.18;;;7.35;;
1925;SDS011;964;42.606;23.588;2023-07-22T11:24:37;9.50;;;7.47;;
1925;SDS011;964;42.606;23.588;2023-07-22T11:27:04;11.32;;;6.18;;
1925;SDS011;964;42.606;23.588;2023-07-22T11:29:34;15.48;;;6.95;;
1925;SDS011;964;42.606;23.588;2023-07-22T11:32:01;11.18;;;6.28;;
1925;SDS011;964;42.606;23.588;2023-07-22T11:34:29;14.00;;;6.90;;
1925;SDS011;964;42.606;23.588;2023-07-22T11:36:56;9.80;;;6.38;;
1925;SDS011;964;42.606;23.588;2023-07-22T11:39:23;10.70;;;6.85;;
1925;SDS011;964;42.606;23.588;2023-07-22T11:41:51;13.82;;;6.75;;
1925;SDS011;964;42.606;23.588;2023-07-22T11:44:19;18.02;;;7.07;;
1925;SDS011;964;42.606;23.588;2023-07-22T11:46:48;9.40;;;6.13;;
1925;SDS011;964;42.606;23.588;2023-07-22T11:49:23;12.77;;;7.55;;
1925;SDS011;964;42.606;23.588;2023-07-22T11:51:52;11.63;;;6.65;;
1925;SDS011;964;42.606;23.588;2023-07-22T11:54:20;13.85;;;7.20;;
1925;SDS011;964;42.606;23.588;2023-07-22T11:56:48;11.40;;;6.38;;
1925;SDS011;964;42.606;23.588;2023-07-22T11:59:14;13.45;;;6.10;;
1925;SDS011;964;42.606;23.588;2023-07-22T12:01:42;16.02;;;7.30;;
1925;SDS011;964;42.606;23.588;2023-07-22T12:04:12;14.02;;;6.15;;
1925;SDS011;964;42.606;23.588;2023-07-22T12:06:39;12.20;;;5.47;;
1925;SDS011;964;42.606;23.588;2023-07-22T12:09:07;15.50;;;5.63;;
1925;SDS011;964;42.606;23.588;2023-07-22T12:11:34;12.40;;;5.50;;
1925;SDS011;964;42.606;23.588;2023-07-22T12:14:06;14.43;;;5.72;;
1925;SDS011;964;42.606;23.588;2023-07-22T12:16:34;18.80;;;5.65;;
1925;SDS011;964;42.606;23.588;2023-07-22T12:19:01;18.13;;;5.80;;
1925;SDS011;964;42.606;23.588;2023-07-22T12:21:29;14.82;;;5.70;;
1925;SDS011;964;42.606;23.588;2023-07-22T12:23:56;13.50;;;5.85;;
1925;SDS011;964;42.606;23.588;2023-07-22T12:26:23;17.85;;;6.18;;
1925;SDS011;964;42.606;23.588;2023-07-22T12:28:50;13.93;;;5.85;;
1925;SDS011;964;42.606;23.588;2023-07-22T12:31:16;12.23;;;4.88;;
1925;SDS011;964;42.606;23.588;2023-07-22T12:33:43;13.70;;;5.20;;
1925;SDS011;964;42.606;23.588;2023-07-22T12:36:10;17.92;;;5.55;;
1925;SDS011;964;42.606;23.588;2023-07-22T12:38:38;13.23;;;5.40;;
1925;SDS011;964;42.606;23.588;2023-07-22T12:41:04;10.10;;;5.47;;
1925;SDS011;964;42.606;23.588;2023-07-22T12:43:31;13.18;;;5.40;;
1925;SDS011;964;42.606;23.588;2023-07-22T12:45:58;9.77;;;4.65;;
1925;SDS011;964;42.606;23.588;2023-07-22T12:48:25;13.50;;;4.75;;
1925;SDS011;964;42.606;23.588;2023-07-22T12:50:51;13.50;;;4.50;;
1925;SDS011;964;42.606;23.588;2023-07-22T12:53:18;13.77;;;5.55;;
1925;SDS011;964;42.606;23.588;2023-07-22T12:55:46;12.75;;;6.07;;
1925;SDS011;964;42.606;23.588;2023-07-22T12:58:13;15.73;;;5.75;;
1925;SDS011;964;42.606;23.588;2023-07-22T13:00:40;12.15;;;5.20;;
1925;SDS011;964;42.606;23.588;2023-07-22T13:03:06;15.50;;;5.22;;
1925;SDS011;964;42.606;23.588;2023-07-22T13:05:33;12.02;;;4.68;;
1925;SDS011;964;42.606;23.588;2023-07-22T13:08:00;14.55;;;5.25;;
1925;SDS011;964;42.606;23.588;2023-07-22T13:10:26;20.80;;;5.13;;
1925;SDS011;964;42.606;23.588;2023-07-22T13:13:04;14.35;;;6.03;;
1925;SDS011;964;42.606;23.588;2023-07-22T13:15:30;15.13;;;5.90;;
1925;SDS011;964;42.606;23.588;2023-07-22T13:17:57;13.57;;;5.95;;
1925;SDS011;964;42.606;23.588;2023-07-22T13:20:24;11.38;;;4.60;;
1925;SDS011;964;42.606;23.588;2023-07-22T13:22:50;13.20;;;5.57;;
1925;SDS011;964;42.606;23.588;2023-07-22T13:25:17;15.98;;;5.63;;
1925;SDS011;964;42.606;23.588;2023-07-22T13:27:44;10.63;;;4.50;;
1925;SDS011;964;42.606;23.588;2023-07-22T13:30:11;17.55;;;4.85;;
1925;SDS011;964;42.606;23.588;2023-07-22T13:32:38;12.82;;;5.78;;
1925;SDS011;964;42.606;23.588;2023-07-22T13:35:05;13.35;;;5.70;;
1925;SDS011;964;42.606;23.588;2023-07-22T13:37:32;15.60;;;6.10;;
1925;SDS011;964;42.606;23.588;2023-07-22T13:39:59;14.13;;;5.65;;
1925;SDS011;964;42.606;23.588;2023-07-22T13:42:26;17.13;;;7.07;;
1925;SDS011;964;42.606;23.588;2023-07-22T13:44:52;11.38;;;5.43;;
1925;SDS011;964;42.606;23.588;2023-07-22T13:47:20;15.80;;;6.18;;
1925;SDS011;964;42.606;23.588;2023-07-22T13:49:47;14.63;;;5.38;;
1925;SDS011;964;42.606;23.588;2023-07-22T13:52:13;12.85;;;5.50;;
1925;SDS011;964;42.606;23.588;2023-07-22T13:54:40;15.02;;;6.55;;
1925;SDS011;964;42.606;23.588;2023-07-22T13:57:06;14.82;;;6.03;;
1925;SDS011;964;42.606;23.588;2023-07-22T13:59:33;20.40;;;6.35;;
1925;SDS011;964;42.606;23.588;2023-07-22T14:02:00;13.23;;;5.88;;
1925;SDS011;964;42.606;23.588;2023-07-22T14:04:28;14.70;;;6.93;;
1925;SDS011;964;42.606;23.588;2023-07-22T14:06:54;16.13;;;6.38;;
1925;SDS011;964;42.606;23.588;2023-07-22T14:09:21;13.35;;;5.95;;
1925;SDS011;964;42.606;23.588;2023-07-22T14:11:48;14.02;;;5.63;;
1925;SDS011;964;42.606;23.588;2023-07-22T14:14:14;17.15;;;6.90;;
1925;SDS011;964;42.606;23.588;2023-07-22T14:16:41;15.75;;;5.97;;
1925;SDS011;964;42.606;23.588;2023-07-22T14:19:07;19.05;;;6.03;;
1925;SDS011;964;42.606;23.588;2023-07-22T14:21:35;14.32;;;6.05;;
1925;SDS011;964;42.606;23.588;2023-07-22T14:24:02;16.90;;;5.75;;
1925;SDS011;964;42.606;23.588;2023-07-22T14:26:29;20.70;;;6.50;;
1925;SDS011;964;42.606;23.588;2023-07-22T14:28:56;13.35;;;5.50;;
1925;SDS011;964;42.606;23.588;2023-07-22T14:31:23;15.30;;;5.57;;
1925;SDS011;964;42.606;23.588;2023-07-22T14:33:49;9.88;;;5.55;;
1925;SDS011;964;42.606;23.588;2023-07-22T14:36:16;14.38;;;6.03;;
1925;SDS011;964;42.606;23.588;2023-07-22T14:38:44;18.92;;;5.80;;
1925;SDS011;964;42.606;23.588;2023-07-22T14:41:11;18.25;;;5.00;;
1925;SDS011;964;42.606;23.588;2023-07-22T14:43:38;14.55;;;5.50;;
1925;SDS011;964;42.606;23.588;2023-07-22T14:46:05;12.77;;;5.43;;
1925;SDS011;964;42.606;23.588;2023-07-22T14:48:31;16.00;;;5.85;;
1925;SDS011;964;42.606;23.588;2023-07-22T14:50:58;14.60;;;5.63;;
1925;SDS011;964;42.606;23.588;2023-07-22T14:53:24;15.05;;;5.50;;
1925;SDS011;964;42.606;23.588;2023-07-22T14:55:52;13.13;;;5.20;;
1925;SDS011;964;42.606;23.588;2023-07-22T14:58:19;14.65;;;4.50;;
1925;SDS011;964;42.606;23.588;2023-07-22T15:00:46;17.08;;;5.18;;
1925;SDS011;964;42.606;23.588;2023-07-22T15:03:12;21.33;;;5.90;;
1925;SDS011;964;42.606;23.588;2023-07-22T15:05:39;17.15;;;4.90;;
1925;SDS011;964;42.606;23.588;2023-07-22T15:08:06;13.80;;;5.82;;
1925;SDS011;964;42.606;23.588;2023-07-22T15:10:32;12.38;;;5.45;;
1925;SDS011;964;42.606;23.588;2023-07-22T15:13:00;10.90;;;4.45;;
1925;SDS011;964;42.606;23.588;2023-07-22T15:15:27;18.10;;;5.60;;
1925;SDS011;964;42.606;23.588;2023-07-22T15:17:54;11.38;;;4.45;;
1925;SDS011;964;42.606;23.588;2023-07-22T15:20:21;13.90;;;5.13;;
1925;SDS011;964;42.606;23.588;2023-07-22T15:22:47;16.20;;;4.72;;
1925;SDS011;964;42.606;23.588;2023-07-22T15:25:14;14.07;;;4.85;;
1925;SDS011;964;42.606;23.588;2023-07-22T15:27:40;15.60;;;5.20;;
1925;SDS011;964;42.606;23.588;2023-07-22T15:30:10;16.83;;;5.18;;
1925;SDS011;964;42.606;23.588;2023-07-22T15:32:37;8.73;;;4.72;;
1925;SDS011;964;42.606;23.588;2023-07-22T15:35:04;14.35;;;5.07;;
1925;SDS011;964;42.606;23.588;2023-07-22T15:37:31;9.98;;;4.75;;
1925;SDS011;964;42.606;23.588;2023-07-22T15:39:59;14.77;;;5.60;;
1925;SDS011;964;42.606;23.588;2023-07-22T15:42:25;11.35;;;4.88;;
1925;SDS011;964;42.606;23.588;2023-07-22T15:44:52;16.52;;;5.80;;
1925;SDS011;964;42.606;23.588;2023-07-22T15:47:20;15.13;;;5.00;;
1925;SDS011;964;42.606;23.588;2023-07-22T15:49:47;12.38;;;4.85;;